createdAt,value
2022-10-11T00:00:14.017Z,1.52
2022-10-11T00:02:40.846Z,1.65
2022-10-11T00:05:08.807Z,1.75
2022-10-11T00:07:38.024Z,1.27
2022-10-11T00:10:08.256Z,2.28
2022-10-11T00:12:36.355Z,1.20
2022-10-11T00:15:06.029Z,1.58
2022-10-11T00:17:33.226Z,1.73
2022-10-11T00:20:00.310Z,1.73
2022-10-11T00:22:27.263Z,1.50
2022-10-11T00:24:54.412Z,2.03
2022-10-11T00:27:21.249Z,1.40
2022-10-11T00:29:48.312Z,2.00
2022-10-11T00:32:15.211Z,1.60
2022-10-11T00:34:42.676Z,1.77
2022-10-11T00:37:09.617Z,2.40
2022-10-11T00:39:36.520Z,1.63
2022-10-11T00:42:04.161Z,1.77
2022-10-11T00:44:33.325Z,1.30
2022-10-11T00:47:09.529Z,1.83
2022-10-11T00:49:54.390Z,1.90
2022-10-11T00:52:32.502Z,2.08
2022-10-11T00:55:12.289Z,1.83
2022-10-11T00:57:44.037Z,1.75
2022-10-11T01:00:13.955Z,1.38
2022-10-11T01:02:41.741Z,1.73
2022-10-11T01:05:29.303Z,1.90
2022-10-11T01:08:01.072Z,1.60
2022-10-11T01:10:28.990Z,1.55
2022-10-11T01:13:48.194Z,1.50
2022-10-11T01:17:00.263Z,1.33
2022-10-11T01:19:45.622Z,1.42
2022-10-11T01:23:05.862Z,1.30
2022-10-11T01:26:13.098Z,1.38
2022-10-11T01:29:15.337Z,1.73
2022-10-11T01:32:12.697Z,1.65
2022-10-11T01:35:03.466Z,1.63
2022-10-11T01:37:43.823Z,2.55
2022-10-11T01:40:23.232Z,1.80
2022-10-11T01:42:51.677Z,1.50
2022-10-11T01:45:20.759Z,1.70
2022-10-11T01:47:48.035Z,1.90
2022-10-11T01:50:40.061Z,1.67
2022-10-11T01:53:43.894Z,2.25
2022-10-11T01:56:36.812Z,1.77
2022-10-11T02:00:16.053Z,1.90
2022-10-11T02:03:44.498Z,1.42
2022-10-11T02:06:40.769Z,1.42
2022-10-11T02:09:53.714Z,1.73
2022-10-11T02:12:46.433Z,2.17
2022-10-11T02:15:16.693Z,2.58
2022-10-11T02:17:55.596Z,2.60
2022-10-11T02:20:26.384Z,1.75
2022-10-11T02:23:01.577Z,2.03
2022-10-11T02:25:31.008Z,1.75
2022-10-11T02:28:01.564Z,2.22
2022-10-11T02:30:30.692Z,2.05
2022-10-11T02:32:59.168Z,1.80
2022-10-11T02:35:29.839Z,1.50
2022-10-11T02:38:12.910Z,2.67
2022-10-11T02:40:45.146Z,1.80
2022-10-11T02:43:33.466Z,1.80
2022-10-11T02:46:05.954Z,2.13
2022-10-11T02:48:35.499Z,2.65
2022-10-11T02:51:04.070Z,3.38
2022-10-11T02:53:31.322Z,1.90
2022-10-11T02:55:58.266Z,1.65
2022-10-11T02:58:25.615Z,2.20
2022-10-11T03:00:52.683Z,1.98
2022-10-11T03:03:19.827Z,1.85
2022-10-11T03:05:47.129Z,1.98
2022-10-11T03:08:17.154Z,1.60
2022-10-11T03:10:45.146Z,3.33
2022-10-11T03:13:16.001Z,2.47
2022-10-11T03:16:02.333Z,1.92
2022-10-11T03:18:31.468Z,2.00
2022-10-11T03:20:58.890Z,1.90
2022-10-11T03:23:25.768Z,1.52
2022-10-11T03:25:52.749Z,1.80
2022-10-11T03:28:20.232Z,1.60
2022-10-11T03:30:51.670Z,1.85
2022-10-11T03:33:19.271Z,1.92
2022-10-11T03:35:47.410Z,1.77
2022-10-11T03:38:21.939Z,2.47
2022-10-11T03:40:49.248Z,1.73
2022-10-11T03:43:16.607Z,2.47
2022-10-11T03:45:43.753Z,2.08
2022-10-11T03:48:11.566Z,1.92
2022-10-11T03:50:38.966Z,2.13
2022-10-11T03:53:07.550Z,2.05
2022-10-11T03:55:34.557Z,2.67
2022-10-11T03:58:01.517Z,1.75
2022-10-11T04:00:28.644Z,2.47
2022-10-11T04:02:55.695Z,2.47
2022-10-11T04:05:22.654Z,1.88
2022-10-11T04:07:49.757Z,2.50
2022-10-11T04:10:17.264Z,2.10
2022-10-11T04:12:44.226Z,2.17
2022-10-11T04:15:13.798Z,2.50
2022-10-11T04:17:41.649Z,2.00
2022-10-11T04:20:09.597Z,2.05
2022-10-11T04:22:36.753Z,2.10
2022-10-11T04:25:04.285Z,2.38
2022-10-11T04:27:31.293Z,2.30
2022-10-11T04:29:58.241Z,2.13
2022-10-11T04:32:25.384Z,2.40
2022-10-11T04:34:53.282Z,2.35
2022-10-11T04:37:20.453Z,2.55
2022-10-11T04:39:47.583Z,2.47
2022-10-11T04:42:14.606Z,2.90
2022-10-11T04:44:41.454Z,2.63
2022-10-11T04:47:08.695Z,2.90
2022-10-11T04:49:35.618Z,2.20
2022-10-11T04:52:02.970Z,3.25
2022-10-11T04:54:30.062Z,2.95
2022-10-11T04:56:56.885Z,2.28
2022-10-11T04:59:23.889Z,2.88
2022-10-11T05:01:51.047Z,3.30
2022-10-11T05:04:17.998Z,2.70
2022-10-11T05:06:45.007Z,2.58
2022-10-11T05:09:11.921Z,3.08
2022-10-11T05:11:39.061Z,2.40
2022-10-11T05:14:05.957Z,2.58
2022-10-11T05:16:33.065Z,3.72
2022-10-11T05:19:00.104Z,2.83
2022-10-11T05:21:29.107Z,2.70
2022-10-11T05:23:57.290Z,2.88
2022-10-11T05:26:27.605Z,2.60
2022-10-11T05:28:55.346Z,3.10
2022-10-11T05:31:22.724Z,2.83
2022-10-11T05:33:49.745Z,2.92
2022-10-11T05:36:17.220Z,3.28
2022-10-11T05:38:44.168Z,2.75
2022-10-11T05:41:14.835Z,3.72
2022-10-11T05:44:08.180Z,4.72
2022-10-11T05:46:35.353Z,4.78
2022-10-11T05:49:02.364Z,2.83
2022-10-11T05:51:29.439Z,2.53
2022-10-11T05:54:22.115Z,3.13
2022-10-11T05:56:49.026Z,2.83
2022-10-11T05:59:15.863Z,3.38
2022-10-11T06:01:43.063Z,3.72
2022-10-11T06:04:11.735Z,3.13
2022-10-11T06:06:38.590Z,3.08
2022-10-11T06:09:05.554Z,4.10
2022-10-11T06:11:32.602Z,3.25
2022-10-11T06:13:59.601Z,3.38
2022-10-11T06:16:27.532Z,3.35
2022-10-11T06:18:56.843Z,3.47
2022-10-11T06:21:24.482Z,3.00
2022-10-11T06:23:56.866Z,3.42
2022-10-11T06:26:27.675Z,3.38
2022-10-11T06:28:54.907Z,4.47
2022-10-11T06:31:23.231Z,3.50
2022-10-11T06:33:50.069Z,3.25
2022-10-11T06:36:17.655Z,3.30
2022-10-11T06:38:45.403Z,4.32
2022-10-11T06:41:26.642Z,3.92
2022-10-11T06:43:53.566Z,3.65
2022-10-11T06:46:23.449Z,4.25
2022-10-11T06:48:51.371Z,2.90
2022-10-11T06:51:21.244Z,4.00
2022-10-11T06:53:55.286Z,3.40
2022-10-11T06:56:22.248Z,3.40
2022-10-11T06:58:51.158Z,3.60
2022-10-11T07:01:21.180Z,2.83
2022-10-11T07:03:48.718Z,3.88
2022-10-11T07:06:25.266Z,3.22
2022-10-11T07:08:52.757Z,3.13
2022-10-11T07:11:23.882Z,3.00
2022-10-11T07:13:53.753Z,2.95
2022-10-11T07:16:21.806Z,3.70
2022-10-11T07:19:00.460Z,3.95
2022-10-11T07:21:30.013Z,2.85
2022-10-11T07:23:56.909Z,2.65
2022-10-11T07:26:23.874Z,3.00
2022-10-11T07:28:50.824Z,2.38
2022-10-11T07:31:23.483Z,3.13
2022-10-11T07:33:50.918Z,3.20
2022-10-11T07:36:17.865Z,3.13
2022-10-11T07:38:46.851Z,2.58
2022-10-11T07:41:14.481Z,2.70
2022-10-11T07:43:43.330Z,2.70
2022-10-11T07:46:11.208Z,2.40
2022-10-11T07:48:38.757Z,2.80
2022-10-11T07:51:16.267Z,3.33
2022-10-11T07:53:46.650Z,2.72
2022-10-11T07:56:17.713Z,3.03
2022-10-11T07:59:11.161Z,2.78
2022-10-11T08:01:38.416Z,2.53
2022-10-11T08:04:05.498Z,3.20
2022-10-11T08:06:32.748Z,2.60
2022-10-11T08:09:01.048Z,3.08
2022-10-11T08:11:35.059Z,2.85
2022-10-11T08:14:08.422Z,2.85
2022-10-11T08:16:36.730Z,2.28
2022-10-11T08:19:04.372Z,2.92
2022-10-11T08:21:32.347Z,2.58
2022-10-11T08:23:59.919Z,2.30
2022-10-11T08:26:26.978Z,2.33
2022-10-11T08:28:53.926Z,3.50
2022-10-11T08:31:21.342Z,3.13
2022-10-11T08:33:48.247Z,2.40
2022-10-11T08:36:15.558Z,3.03
2022-10-11T08:38:42.643Z,2.63
2022-10-11T08:41:38.854Z,2.53
2022-10-11T08:45:10.468Z,2.17
2022-10-11T08:47:37.896Z,2.60
2022-10-11T08:50:08.693Z,3.25
2022-10-11T08:52:53.726Z,2.53
2022-10-11T08:55:52.981Z,2.72
2022-10-11T08:58:25.913Z,2.22
2022-10-11T09:00:56.601Z,1.98
2022-10-11T09:03:43.054Z,2.28
2022-10-11T09:06:37.475Z,2.42
2022-10-11T09:09:22.747Z,1.92
2022-10-11T09:12:11.810Z,1.90
2022-10-11T09:15:55.173Z,2.30
2022-10-11T09:18:45.874Z,2.30
2022-10-11T09:21:42.190Z,1.73
2022-10-11T09:24:27.318Z,2.50
2022-10-11T09:27:01.778Z,2.47
2022-10-11T09:30:04.035Z,1.35
2022-10-11T09:32:37.779Z,2.35
2022-10-11T09:35:22.977Z,2.53
2022-10-11T09:38:14.658Z,2.28
2022-10-11T09:41:22.237Z,2.03
2022-10-11T09:46:37.555Z,1.85
2022-10-11T09:49:12.455Z,1.90
2022-10-11T09:51:45.153Z,1.77
2022-10-11T09:54:12.018Z,1.83
2022-10-11T09:56:45.368Z,2.10
2022-10-11T09:59:27.565Z,2.40
2022-10-11T10:02:20.673Z,1.65
2022-10-11T10:05:10.815Z,2.25
2022-10-11T10:07:41.028Z,2.20
2022-10-11T10:10:39.365Z,1.90
2022-10-11T10:13:41.967Z,2.30
2022-10-11T10:16:29.614Z,2.00
2022-10-11T10:19:07.723Z,2.30
2022-10-11T10:21:38.814Z,2.35
2022-10-11T10:24:18.307Z,1.60
2022-10-11T10:27:14.482Z,1.77
2022-10-11T10:29:42.499Z,2.00
2022-10-11T10:32:37.935Z,1.92
2022-10-11T10:35:39.313Z,1.90
2022-10-11T10:38:24.108Z,1.77
2022-10-11T10:40:58.393Z,2.28
2022-10-11T10:43:32.194Z,1.73
2022-10-11T10:46:26.419Z,1.83
2022-10-11T10:50:13.989Z,1.58
2022-10-11T10:53:04.800Z,1.80
2022-10-11T10:55:38.191Z,1.75
2022-10-11T10:58:22.027Z,2.30
2022-10-11T11:01:03.592Z,1.75
2022-10-11T11:04:26.180Z,1.95
2022-10-11T11:07:20.084Z,1.60
2022-10-11T11:10:16.793Z,1.73
2022-10-11T11:13:10.087Z,1.80
2022-10-11T11:16:05.236Z,1.52
2022-10-11T11:18:51.257Z,2.22
2022-10-11T11:21:41.868Z,2.15
2022-10-11T11:24:20.782Z,1.48
2022-10-11T11:27:28.213Z,1.50
2022-10-11T11:30:34.119Z,1.63
2022-10-11T11:33:18.613Z,1.60
2022-10-11T11:35:58.833Z,2.03
2022-10-11T11:38:52.424Z,1.50
2022-10-11T11:41:45.162Z,2.20
2022-10-11T11:44:31.599Z,1.58
2022-10-11T11:47:24.862Z,1.25
2022-10-11T11:50:04.786Z,1.45
2022-10-11T11:52:44.116Z,1.75
2022-10-11T11:55:23.042Z,1.50
2022-10-11T11:58:37.301Z,1.70
2022-10-11T12:01:50.998Z,1.25
2022-10-11T12:04:45.756Z,1.80
2022-10-11T12:07:21.765Z,2.05
2022-10-11T12:10:37.226Z,1.73
2022-10-11T12:13:31.996Z,2.05
2022-10-11T12:16:13.749Z,1.50
2022-10-11T12:18:57.821Z,1.40
2022-10-11T12:21:39.228Z,1.58
2022-10-11T12:24:19.270Z,1.85
2022-10-11T12:26:48.506Z,1.60
2022-10-11T12:29:18.677Z,2.63
2022-10-11T12:32:11.216Z,1.50
2022-10-11T12:34:42.593Z,1.83
2022-10-11T12:37:19.115Z,2.08
2022-10-11T12:39:55.695Z,1.70
2022-10-11T12:45:11.967Z,2.45
2022-10-11T12:48:33.131Z,1.50
2022-10-11T12:51:30.836Z,1.95
2022-10-11T12:54:29.962Z,1.58
2022-10-11T12:57:12.543Z,1.80
2022-10-11T12:59:46.226Z,2.10
2022-10-11T13:02:42.618Z,1.30
2022-10-11T13:05:45.481Z,1.88
2022-10-11T13:08:32.121Z,1.88
2022-10-11T13:11:05.142Z,1.73
2022-10-11T13:13:39.903Z,1.92
2022-10-11T13:16:16.473Z,1.52
2022-10-11T13:18:47.605Z,1.73
2022-10-11T13:21:36.485Z,1.40
2022-10-11T13:24:19.248Z,1.80
2022-10-11T13:26:49.837Z,1.73
2022-10-11T13:29:38.775Z,2.03
2022-10-11T13:32:27.603Z,1.65
2022-10-11T13:35:07.500Z,1.55
2022-10-11T13:37:45.352Z,1.67
2022-10-11T13:40:16.460Z,1.50
2022-10-11T13:42:44.125Z,1.42
2022-10-11T13:45:19.204Z,1.65
2022-10-11T13:47:48.109Z,1.20
2022-10-11T13:50:32.181Z,1.80
2022-10-11T13:53:07.786Z,1.73
2022-10-11T13:55:54.760Z,1.27
2022-10-11T14:01:04.191Z,1.02
2022-10-11T14:03:59.572Z,1.60
2022-10-11T14:06:56.679Z,1.90
2022-10-11T14:09:32.762Z,1.35
2022-10-11T14:12:35.076Z,1.50
2022-10-11T14:15:25.671Z,1.13
2022-10-11T14:17:53.083Z,1.60
2022-10-11T14:20:26.422Z,1.40
2022-10-11T14:22:56.568Z,1.77
2022-10-11T14:25:23.407Z,1.60
2022-10-11T14:27:50.592Z,1.85
2022-10-11T14:30:26.106Z,1.90
2022-10-11T14:32:56.966Z,1.25
2022-10-11T14:35:31.956Z,1.70
2022-10-11T14:37:59.204Z,1.20
2022-10-11T14:40:30.086Z,1.38
2022-10-11T14:43:22.312Z,1.25
2022-10-11T14:45:49.564Z,1.52
2022-10-11T14:48:26.712Z,1.30
2022-10-11T14:53:31.629Z,1.80
2022-10-11T14:55:58.608Z,1.48
2022-10-11T14:58:25.567Z,1.40
2022-10-11T15:01:17.852Z,1.10
2022-10-11T15:03:44.946Z,1.40
2022-10-11T15:06:24.286Z,1.85
2022-10-11T15:08:51.352Z,1.40
2022-10-11T15:11:20.797Z,1.50
2022-10-11T15:13:48.580Z,1.58
2022-10-11T15:16:19.839Z,1.42
2022-10-11T15:18:52.144Z,1.58
2022-10-11T15:21:23.454Z,1.85
2022-10-11T15:23:53.785Z,1.20
2022-10-11T15:26:28.800Z,2.33
2022-10-11T15:28:57.235Z,2.40
2022-10-11T15:31:24.447Z,1.77
2022-10-11T15:33:55.388Z,1.90
2022-10-11T15:36:22.839Z,2.67
2022-10-11T15:38:50.092Z,3.08
2022-10-11T15:41:19.056Z,2.67
2022-10-11T15:43:48.672Z,1.83
2022-10-11T15:46:20.284Z,1.80
2022-10-11T15:48:48.599Z,1.77
2022-10-11T15:51:16.214Z,1.63
2022-10-11T15:53:43.513Z,1.80
2022-10-11T15:56:16.740Z,1.40
2022-10-11T15:58:44.129Z,1.60
2022-10-11T16:01:19.289Z,1.50
2022-10-11T16:03:48.947Z,2.55
2022-10-11T16:06:17.676Z,1.50
2022-10-11T16:08:45.040Z,3.42
2022-10-11T16:11:13.237Z,3.85
2022-10-11T16:13:40.581Z,2.00
2022-10-11T16:16:09.712Z,1.98
2022-10-11T16:18:37.135Z,1.80
2022-10-11T16:21:11.062Z,1.45
2022-10-11T16:23:38.722Z,3.00
2022-10-11T16:26:11.016Z,1.92
2022-10-11T16:28:38.592Z,1.77
2022-10-11T16:31:17.933Z,1.58
2022-10-11T16:33:46.210Z,2.30
2022-10-11T16:36:31.733Z,2.22
2022-10-11T16:39:00.810Z,2.20
2022-10-11T16:41:27.837Z,2.55
2022-10-11T16:44:27.889Z,2.30
2022-10-11T16:46:55.812Z,2.75
2022-10-11T16:49:26.918Z,2.95
2022-10-11T16:51:59.029Z,2.17
2022-10-11T16:54:30.613Z,2.00
2022-10-11T16:56:58.927Z,2.95
2022-10-11T16:59:26.121Z,2.95
2022-10-11T17:01:53.221Z,3.20
2022-10-11T17:04:20.117Z,3.50
2022-10-11T17:06:47.366Z,5.18
2022-10-11T17:09:14.482Z,4.88
2022-10-11T17:11:42.090Z,3.83
2022-10-11T17:14:11.055Z,4.30
2022-10-11T17:16:37.984Z,6.55
2022-10-11T17:19:05.426Z,4.45
2022-10-11T17:21:32.414Z,4.20
2022-10-11T17:23:59.445Z,3.92
2022-10-11T17:26:27.272Z,4.10
2022-10-11T17:28:59.583Z,4.30
2022-10-11T17:31:28.210Z,3.92
2022-10-11T17:34:20.642Z,3.63
2022-10-11T17:36:47.959Z,4.22
2022-10-11T17:39:19.032Z,4.63
2022-10-11T17:42:11.261Z,4.10
2022-10-11T17:44:38.306Z,7.85
2022-10-11T17:47:05.493Z,5.55
2022-10-11T17:49:32.420Z,4.97
2022-10-11T17:51:59.262Z,4.25
2022-10-11T17:54:26.697Z,4.50
2022-10-11T17:56:54.425Z,4.20
2022-10-11T17:59:21.700Z,4.63
2022-10-11T18:01:50.308Z,4.72
2022-10-11T18:04:21.301Z,4.38
2022-10-11T18:06:49.852Z,4.28
2022-10-11T18:09:18.572Z,4.05
2022-10-11T18:11:47.218Z,7.68
2022-10-11T18:14:14.973Z,5.55
2022-10-11T18:16:42.698Z,5.60
2022-10-11T18:19:13.320Z,5.82
2022-10-11T18:21:40.759Z,5.90
2022-10-11T18:24:15.312Z,6.97
2022-10-11T18:26:44.428Z,6.93
2022-10-11T18:29:12.637Z,6.45
2022-10-11T18:31:40.934Z,6.28
2022-10-11T18:34:10.845Z,7.40
2022-10-11T18:36:38.665Z,5.85
2022-10-11T18:39:08.638Z,6.70
2022-10-11T18:41:38.678Z,6.82
2022-10-11T18:44:08.454Z,7.45
2022-10-11T18:46:36.455Z,7.63
2022-10-11T18:49:03.522Z,6.80
2022-10-11T18:51:39.137Z,7.90
2022-10-11T18:54:08.329Z,7.78
2022-10-11T18:56:37.236Z,6.68
2022-10-11T18:59:05.554Z,22.58
2022-10-11T19:01:39.973Z,12.15
2022-10-11T19:04:10.878Z,13.50
2022-10-11T19:06:45.363Z,10.38
2022-10-11T19:09:21.723Z,8.48
2022-10-11T19:11:54.407Z,7.57
2022-10-11T19:14:28.547Z,6.72
2022-10-11T19:16:56.742Z,8.70
2022-10-11T19:19:29.351Z,7.82
2022-10-11T19:21:56.636Z,8.20
2022-10-11T19:24:26.697Z,7.82
2022-10-11T19:26:58.400Z,8.55
2022-10-11T19:29:28.781Z,8.10
2022-10-11T19:31:59.742Z,8.68
2022-10-11T19:37:19.217Z,7.80
2022-10-11T19:39:46.038Z,8.85
2022-10-11T19:42:13.076Z,8.98
2022-10-11T19:44:39.964Z,8.40
2022-10-11T19:47:07.159Z,9.50
2022-10-11T19:49:34.545Z,9.57
2022-10-11T19:52:02.491Z,9.27
2022-10-11T19:54:29.430Z,8.98
2022-10-11T19:56:56.618Z,11.23
2022-10-11T19:59:23.549Z,11.10
2022-10-11T20:01:53.103Z,11.10
2022-10-11T20:07:08.672Z,9.18
2022-10-11T20:09:35.623Z,12.20
2022-10-11T20:12:02.538Z,11.05
2022-10-11T20:14:30.098Z,10.77
2022-10-11T20:16:57.144Z,11.10
2022-10-11T20:19:30.389Z,10.68
2022-10-11T20:22:01.874Z,10.80
2022-10-11T20:24:32.541Z,10.60
2022-10-11T20:27:02.918Z,13.68
2022-10-11T20:29:29.813Z,13.02
2022-10-11T20:31:56.610Z,13.43
2022-10-11T20:34:23.677Z,12.40
2022-10-11T20:36:50.673Z,12.82
2022-10-11T20:39:17.930Z,12.70
2022-10-11T20:41:48.196Z,11.77
2022-10-11T20:44:16.046Z,13.45
2022-10-11T20:46:43.246Z,12.68
2022-10-11T20:49:11.697Z,12.23
2022-10-11T20:51:41.600Z,13.85
2022-10-11T20:54:13.383Z,13.50
2022-10-11T20:56:40.401Z,13.55
2022-10-11T20:59:07.688Z,14.05
2022-10-11T21:01:38.612Z,14.63
2022-10-11T21:04:07.691Z,15.77
2022-10-11T21:06:34.678Z,13.60
2022-10-11T21:09:02.034Z,14.63
2022-10-11T21:11:31.769Z,14.98
2022-10-11T21:14:02.281Z,15.35
2022-10-11T21:16:29.862Z,15.13
2022-10-11T21:18:58.382Z,14.57
2022-10-11T21:21:26.730Z,16.83
2022-10-11T21:23:55.977Z,17.65
2022-10-11T21:26:22.968Z,18.75
2022-10-11T21:28:50.105Z,18.08
2022-10-11T21:31:19.849Z,17.23
2022-10-11T21:33:47.418Z,18.80
2022-10-11T21:36:17.771Z,18.83
2022-10-11T21:38:46.751Z,19.08
2022-10-11T21:41:18.608Z,19.02
2022-10-11T21:44:10.896Z,18.40
2022-10-11T21:47:05.491Z,17.88
2022-10-11T21:49:25.969Z,16.92
2022-10-11T21:51:53.602Z,17.52
2022-10-11T21:54:20.748Z,16.08
2022-10-11T21:56:47.649Z,17.30
2022-10-11T21:59:14.579Z,16.52
2022-10-11T22:01:43.356Z,16.55
2022-10-11T22:04:10.945Z,18.13
2022-10-11T22:06:38.648Z,16.20
2022-10-11T22:09:06.806Z,16.98
2022-10-11T22:11:33.688Z,17.23
2022-10-11T22:14:00.917Z,17.45
2022-10-11T22:16:28.036Z,17.38
2022-10-11T22:18:54.842Z,18.92
2022-10-11T22:21:23.634Z,17.38
2022-10-11T22:23:53.501Z,17.60
2022-10-11T22:26:26.449Z,16.40
2022-10-11T22:28:53.875Z,18.02
2022-10-11T22:31:22.037Z,17.10
2022-10-11T22:34:13.809Z,15.63
2022-10-11T22:36:41.099Z,16.58
2022-10-11T22:39:09.717Z,16.00
2022-10-11T22:41:37.722Z,17.90
2022-10-11T22:44:05.133Z,16.13
2022-10-11T22:46:32.364Z,16.60
2022-10-11T22:48:59.380Z,16.60
2022-10-11T22:51:26.232Z,16.52
2022-10-11T22:53:53.698Z,16.63
2022-10-11T22:56:20.720Z,15.63
2022-10-11T22:58:47.577Z,16.52
2022-10-11T23:01:16.390Z,15.68
2022-10-11T23:03:43.491Z,14.93
2022-10-11T23:06:10.526Z,15.95
2022-10-11T23:08:37.637Z,15.68
2022-10-11T23:11:06.832Z,14.95
2022-10-11T23:13:34.565Z,14.75
2022-10-11T23:16:10.951Z,14.60
2022-10-11T23:18:38.292Z,15.05
2022-10-11T23:21:06.998Z,16.45
2022-10-11T23:23:34.171Z,15.25
2022-10-11T23:26:12.745Z,13.70
2022-10-11T23:28:40.212Z,14.48
2022-10-11T23:31:16.968Z,17.00
2022-10-11T23:33:45.361Z,15.02
2022-10-11T23:36:24.172Z,14.60
2022-10-11T23:38:53.387Z,16.10
2022-10-11T23:41:21.846Z,16.35
2022-10-11T23:43:49.129Z,16.75
2022-10-11T23:46:16.049Z,15.05
2022-10-11T23:48:43.001Z,14.98
2022-10-11T23:51:09.935Z,15.18
2022-10-11T23:53:38.121Z,14.40
2022-10-11T23:56:06.002Z,13.98
2022-10-11T23:58:33.254Z,14.75
